Time;durP1;ratioP1;P1;durP2;ratioP2;P2;SDS_P1;SDS_P2;PMS_P1;PMS_P2;Temp;Humidity;BMP_temperature;BMP_pressure;BME280_temperature;BME280_humidity;BME280_pressure;Samples;Min_cycle;Max_cycle;Signal;HPM_P1;HPM_P2
2021/11/30 00:01:55;;;;;;;14.82;7.72;;;;;;;4.32;74.56;101437.19;5058114;28;20060;-63
2021/11/30 00:04:28;;;;;;;14.00;7.60;;;;;;;4.44;74.17;101443.34;5058744;28;20064;-62
2021/11/30 00:06:57;;;;;;;16.38;7.78;;;;;;;4.36;74.69;101447.34;5061202;28;20053;-66
2021/11/30 00:12:27;;;;;;;14.23;7.93;;;;;;;4.65;74.02;101441.66;5062916;28;20052;-62
2021/11/30 00:14:55;;;;;;;13.23;7.13;;;;;;;4.61;74.69;101444.06;5058438;28;20060;-63
2021/11/30 00:17:23;;;;;;;15.68;7.75;;;;;;;4.51;74.63;101441.25;5058327;28;20049;-63
2021/11/30 00:19:51;;;;;;;14.35;7.05;;;;;;;4.80;74.25;101445.38;5040545;28;20053;-64
2021/11/30 00:22:22;;;;;;;12.02;6.70;;;;;;;4.68;73.93;101447.41;5057994;28;20605;-63
2021/11/30 00:24:51;;;;;;;14.68;7.57;;;;;;;4.65;74.12;101441.66;5058331;28;20401;-63
2021/11/30 00:27:19;;;;;;;12.37;6.93;;;;;;;4.70;74.21;101441.69;5057418;28;20167;-64
2021/11/30 00:29:46;;;;;;;12.63;6.60;;;;;;;4.76;74.14;101441.50;5056884;28;20063;-63
2021/11/30 00:32:13;;;;;;;11.98;6.55;;;;;;;4.64;74.17;101434.56;5056187;28;20056;-63
2021/11/30 00:34:41;;;;;;;19.17;7.22;;;;;;;4.47;75.40;101429.19;5056516;28;20045;-63
2021/11/30 00:37:08;;;;;;;17.63;8.50;;;;;;;4.66;74.70;101432.38;5057870;28;20070;-63
2021/11/30 00:39:35;;;;;;;13.45;7.38;;;;;;;4.65;74.61;101431.56;5077901;28;20040;-63
2021/11/30 00:42:03;;;;;;;13.48;7.53;;;;;;;4.58;75.48;101426.28;5098169;28;20052;-66
2021/11/30 00:44:34;;;;;;;11.15;6.60;;;;;;;4.71;74.97;101425.06;5096852;28;20051;-62
2021/11/30 00:47:02;;;;;;;13.57;7.50;;;;;;;4.95;74.30;101418.19;5089289;28;20655;-63
2021/11/30 00:49:30;;;;;;;14.55;7.10;;;;;;;4.78;74.67;101412.03;5069121;28;20468;-62
2021/11/30 00:51:59;;;;;;;16.13;7.30;;;;;;;4.87;74.49;101415.13;5058355;28;20067;-64
2021/11/30 00:54:28;;;;;;;13.30;6.83;;;;;;;4.98;74.46;101414.16;5072904;28;20052;-63
2021/11/30 00:56:55;;;;;;;10.80;6.50;;;;;;;5.33;73.31;101417.16;5077904;28;20052;-65
2021/11/30 00:59:27;;;;;;;14.10;7.65;;;;;;;5.10;73.81;101420.25;5077910;28;20063;-63
2021/11/30 01:01:56;;;;;;;15.60;7.75;;;;;;;4.89;74.63;101415.69;5063529;28;20611;-63
2021/11/30 01:04:24;;;;;;;12.30;7.25;;;;;;;4.77;75.28;101424.06;5074824;28;20056;-63
2021/11/30 01:06:51;;;;;;;12.85;7.30;;;;;;;4.78;75.31;101422.97;5061219;28;20140;-62
2021/11/30 01:09:18;;;;;;;13.32;7.30;;;;;;;4.80;75.51;101422.69;5063011;28;20049;-62
2021/11/30 01:11:46;;;;;;;14.10;7.35;;;;;;;5.06;75.17;101408.19;5077310;28;20060;-62
2021/11/30 01:14:13;;;;;;;10.70;6.43;;;;;;;5.13;74.67;101408.81;5077369;28;20059;-62
2021/11/30 01:16:40;;;;;;;10.65;6.90;;;;;;;5.22;74.59;101410.81;5077656;28;20045;-64
2021/11/30 01:19:09;;;;;;;13.32;7.20;;;;;;;5.31;73.87;101405.69;5062243;28;20066;-64
2021/11/30 01:21:36;;;;;;;15.23;7.00;;;;;;;5.28;73.88;101414.41;5057350;28;20060;-63
2021/11/30 01:24:05;;;;;;;11.80;6.90;;;;;;;5.37;73.82;101412.84;5057390;28;20055;-63
2021/11/30 01:26:33;;;;;;;11.18;6.68;;;;;;;5.32;73.36;101407.31;5063260;28;20060;-62
2021/11/30 01:29:02;;;;;;;16.42;7.22;;;;;;;5.00;74.83;101404.63;5075336;28;20057;-63
2021/11/30 01:31:30;;;;;;;12.68;7.20;;;;;;;5.20;74.03;101406.69;5080392;28;20056;-63
2021/11/30 01:33:57;;;;;;;10.27;6.40;;;;;;;5.16;74.12;101403.66;5070821;28;20045;-63
2021/11/30 01:36:25;;;;;;;10.40;6.32;;;;;;;5.48;73.35;101395.41;5077963;28;20063;-63
2021/11/30 01:38:52;;;;;;;11.93;6.88;;;;;;;5.20;73.96;101390.28;5077363;28;20044;-63
2021/11/30 01:41:20;;;;;;;16.90;7.20;;;;;;;5.39;73.65;101394.25;5077508;28;20075;-63
2021/11/30 01:43:48;;;;;;;10.73;7.07;;;;;;;5.16;74.22;101398.19;5090469;28;20062;-63
2021/11/30 01:51:32;;;;;;;11.77;6.53;;;;;;;5.45;73.76;101399.50;5095400;28;20063;-63
2021/11/30 01:53:59;;;;;;;12.27;6.30;;;;;;;5.33;74.43;101395.31;5095497;28;20056;-64
2021/11/30 01:56:27;;;;;;;12.82;6.53;;;;;;;5.57;73.65;101385.63;5097005;28;20487;-62
2021/11/30 01:58:55;;;;;;;13.00;6.93;;;;;;;5.37;73.87;101369.94;5096826;28;20051;-64
2021/11/30 02:01:22;;;;;;;12.13;7.05;;;;;;;5.34;74.49;101372.38;5095221;28;20059;-63
2021/11/30 02:03:50;;;;;;;12.55;6.93;;;;;;;5.39;74.56;101359.56;5078597;28;20063;-64
2021/11/30 02:06:17;;;;;;;11.90;6.80;;;;;;;5.52;74.50;101370.06;5096690;28;20048;-63
2021/11/30 02:08:44;;;;;;;11.43;6.68;;;;;;;5.44;74.70;101358.81;5095478;28;20052;-63
2021/11/30 02:11:12;;;;;;;13.23;6.80;;;;;;;5.46;74.15;101362.06;5096799;28;20054;-62
2021/11/30 02:13:39;;;;;;;13.38;6.82;;;;;;;5.62;74.02;101367.38;5096387;28;20495;-64
2021/11/30 02:16:08;;;;;;;13.18;6.82;;;;;;;5.81;73.30;101366.91;5094986;28;20060;-63
2021/11/30 02:18:42;;;;;;;17.23;7.40;;;;;;;5.66;73.07;101373.97;5078424;28;20056;-62
2021/11/30 02:21:09;;;;;;;13.15;7.32;;;;;;;5.57;73.57;101367.34;5095516;28;20052;-63
2021/11/30 02:26:11;;;;;;;14.32;6.88;;;;;;;5.56;74.06;101341.09;5095378;28;20427;-63
2021/11/30 02:28:40;;;;;;;17.30;6.95;;;;;;;5.59;74.10;101343.31;5094417;28;20056;-62
2021/11/30 02:31:09;;;;;;;12.40;6.65;;;;;;;5.51;73.47;101338.34;5095036;28;20055;-63
2021/11/30 02:33:37;;;;;;;11.80;6.88;;;;;;;5.68;73.24;101344.44;5094874;28;20052;-63
2021/11/30 02:36:30;;;;;;;12.18;7.25;;;;;;;5.83;73.59;101345.63;5094873;28;20078;-63
2021/11/30 02:39:00;;;;;;;11.38;6.85;;;;;;;5.66;73.30;101340.34;5091486;28;20060;-62
2021/11/30 02:41:27;;;;;;;13.25;6.93;;;;;;;5.58;73.45;101338.91;5074753;28;20049;-64
2021/11/30 02:43:57;;;;;;;12.93;7.07;;;;;;;5.58;73.48;101333.47;5075603;28;20056;-62
2021/11/30 02:46:29;;;;;;;12.15;7.20;;;;;;;5.63;73.64;101335.41;5074337;28;20487;-64
2021/11/30 02:48:56;;;;;;;12.93;7.38;;;;;;;5.53;74.10;101333.44;5075817;28;20052;-63
2021/11/30 02:51:25;;;;;;;11.85;7.13;;;;;;;5.66;73.38;101322.03;5075906;28;20049;-63
2021/11/30 02:53:55;;;;;;;13.20;6.13;;;;;;;5.83;73.31;101316.38;5075620;28;20052;-62
2021/11/30 02:56:26;;;;;;;11.73;6.20;;;;;;;5.96;73.20;101315.06;5074269;28;20539;-63
2021/11/30 02:58:54;;;;;;;15.52;6.80;;;;;;;5.77;72.59;101313.88;5076274;28;20056;-63
2021/11/30 03:01:22;;;;;;;11.95;7.00;;;;;;;5.54;73.46;101334.25;5075425;28;20053;-63
2021/11/30 03:03:49;;;;;;;11.50;6.65;;;;;;;5.43;74.33;101327.09;5075482;28;20389;-64
2021/11/30 03:06:17;;;;;;;12.43;6.53;;;;;;;5.60;73.46;101331.28;5075618;28;20060;-62
2021/11/30 03:08:44;;;;;;;14.10;6.45;;;;;;;5.66;73.86;101329.41;5075646;28;20036;-63
2021/11/30 03:11:11;;;;;;;13.52;6.15;;;;;;;5.72;73.77;101331.06;5075686;28;20500;-63
2021/11/30 03:13:38;;;;;;;11.32;7.53;;;;;;;5.72;73.02;101329.16;5075314;28;20059;-64
2021/11/30 03:16:06;;;;;;;12.27;7.05;;;;;;;5.73;73.11;101330.81;5074980;28;20067;-64
2021/11/30 03:18:35;;;;;;;13.75;6.93;;;;;;;5.51;73.40;101321.94;5075553;28;20048;-62
2021/11/30 03:21:04;;;;;;;11.48;6.35;;;;;;;5.79;72.81;101323.44;5075505;28;20063;-62
2021/11/30 03:23:31;;;;;;;15.07;6.20;;;;;;;5.68;73.12;101327.22;5074621;28;20052;-62
2021/11/30 03:25:59;;;;;;;11.48;7.05;;;;;;;5.79;72.94;101337.09;5075312;28;20052;-63
2021/11/30 03:28:26;;;;;;;12.35;6.72;;;;;;;5.63;73.07;101338.16;5075208;28;20060;-63
2021/11/30 03:31:01;;;;;;;11.45;6.13;;;;;;;5.62;73.24;101348.25;5073781;28;20064;-63
2021/11/30 03:36:15;;;;;;;11.48;6.18;;;;;;;5.83;72.98;101337.44;5075038;28;20396;-62
2021/11/30 03:38:42;;;;;;;13.05;6.57;;;;;;;5.62;73.72;101345.50;5072866;28;20045;-64
2021/11/30 03:41:13;;;;;;;10.27;6.40;;;;;;;5.66;73.24;101351.28;5095422;28;20048;-63
2021/11/30 03:43:40;;;;;;;12.57;6.45;;;;;;;5.81;72.54;101359.53;5094087;28;20055;-63
2021/11/30 03:46:08;;;;;;;12.85;6.70;;;;;;;5.71;72.92;101348.56;5095087;28;20044;-63
2021/11/30 03:48:35;;;;;;;12.07;6.93;;;;;;;5.68;73.16;101357.28;5095357;28;20051;-62
2021/11/30 03:51:03;;;;;;;12.80;6.65;;;;;;;5.62;73.87;101350.16;5093644;28;20063;-63
2021/11/30 03:53:30;;;;;;;9.90;6.35;;;;;;;5.82;73.33;101353.00;5095006;28;20063;-63
2021/11/30 03:55:57;;;;;;;11.95;6.45;;;;;;;6.02;72.63;101352.25;5095168;28;20051;-62
2021/11/30 03:58:25;;;;;;;9.63;6.25;;;;;;;5.79;73.17;101361.69;5095417;28;20052;-64
2021/11/30 04:00:52;;;;;;;12.02;7.10;;;;;;;5.75;73.55;101357.88;5094957;28;20407;-63
2021/11/30 04:03:23;;;;;;;13.23;6.78;;;;;;;6.00;73.13;101343.53;5095253;28;20052;-62
2021/11/30 04:05:55;;;;;;;10.15;6.35;;;;;;;5.75;74.33;101345.00;5093365;28;20052;-62
2021/11/30 04:08:22;;;;;;;14.27;7.53;;;;;;;5.87;73.87;101350.31;5095383;28;20051;-63
2021/11/30 04:10:49;;;;;;;10.95;6.53;;;;;;;5.75;74.54;101350.47;5094896;28;20051;-62
2021/11/30 04:13:16;;;;;;;12.68;6.97;;;;;;;5.46;75.81;101348.41;5093472;28;20059;-62
2021/11/30 04:15:44;;;;;;;13.15;7.18;;;;;;;5.63;76.23;101351.81;5094654;28;20056;-62
2021/11/30 04:18:11;;;;;;;11.85;7.10;;;;;;;5.67;76.02;101350.16;5094843;28;20052;-61
2021/11/30 04:20:38;;;;;;;13.00;7.45;;;;;;;5.72;75.71;101358.38;5095119;28;20502;-63
2021/11/30 04:23:06;;;;;;;11.63;7.07;;;;;;;5.42;75.77;101350.84;5094731;28;20495;-62
2021/11/30 04:25:34;;;;;;;14.45;7.78;;;;;;;5.39;76.97;101356.00;5093701;28;20048;-62
2021/11/30 04:28:01;;;;;;;14.32;7.55;;;;;;;5.57;77.28;101341.91;5093559;28;20059;-63
2021/11/30 04:30:28;;;;;;;14.32;7.22;;;;;;;5.39;77.84;101340.44;5094699;28;20056;-62
2021/11/30 04:32:56;;;;;;;11.75;7.72;;;;;;;5.62;77.30;101339.22;5094395;28;20056;-63
2021/11/30 04:35:24;;;;;;;13.23;7.55;;;;;;;5.66;77.35;101330.22;5095360;28;20051;-62
2021/11/30 04:37:52;;;;;;;10.90;6.80;;;;;;;5.62;77.59;101323.66;5098362;28;20047;-63
2021/11/30 04:40:20;;;;;;;13.13;7.93;;;;;;;5.80;77.21;101332.47;5081232;28;20056;-63
2021/11/30 04:42:48;;;;;;;13.73;7.47;;;;;;;5.59;78.04;101326.91;5078118;28;20051;-63
2021/11/30 04:45:26;;;;;;;14.25;7.55;;;;;;;5.51;78.83;101316.47;5078106;28;20059;-63
2021/11/30 04:47:56;;;;;;;13.13;7.55;;;;;;;5.55;79.39;101316.78;5078033;28;20506;-63
2021/11/30 04:50:26;;;;;;;12.27;7.63;;;;;;;5.30;80.40;101320.19;5078019;28;20060;-63
2021/11/30 04:52:55;;;;;;;12.07;7.35;;;;;;;5.34;81.29;101312.28;5077780;28;20056;-63
2021/11/30 04:55:29;;;;;;;15.27;8.32;;;;;;;5.23;81.41;101313.31;5078335;28;20048;-63
2021/11/30 04:58:00;;;;;;;12.07;7.43;;;;;;;5.32;81.52;101319.91;5077865;28;20075;-62
2021/11/30 05:00:29;;;;;;;16.33;8.23;;;;;;;5.36;80.93;101316.41;5076473;28;20057;-63
2021/11/30 05:02:56;;;;;;;13.02;7.70;;;;;;;5.23;81.10;101322.31;5077516;28;20068;-63
2021/11/30 05:05:24;;;;;;;11.98;7.45;;;;;;;5.21;81.63;101326.41;5077815;28;20048;-63
2021/11/30 05:07:51;;;;;;;12.75;7.60;;;;;;;5.20;82.03;101322.03;5077833;28;20387;-62
2021/11/30 05:10:18;;;;;;;12.10;7.80;;;;;;;5.27;82.00;101320.72;5076395;28;20048;-62
2021/11/30 05:12:46;;;;;;;12.70;8.07;;;;;;;5.16;83.49;101321.72;5076158;28;20401;-63
2021/11/30 05:15:14;;;;;;;15.93;8.02;;;;;;;5.09;83.69;101328.53;5077322;28;20048;-63
2021/11/30 05:17:42;;;;;;;14.48;8.38;;;;;;;5.24;83.38;101332.19;5077257;28;20049;-63
2021/11/30 05:20:10;;;;;;;12.75;7.68;;;;;;;5.16;83.17;101319.00;5077496;28;20060;-63
2021/11/30 05:22:38;;;;;;;12.70;7.60;;;;;;;5.18;83.21;101335.94;5077408;28;20044;-62
2021/11/30 05:25:24;;;;;;;16.50;7.93;;;;;;;5.31;82.75;101321.84;5076308;28;20051;-63
2021/11/30 05:27:52;;;;;;;14.48;7.38;;;;;;;5.00;83.66;101319.16;5077429;28;20048;-63
2021/11/30 05:30:21;;;;;;;11.30;7.32;;;;;;;5.03;84.05;101307.72;5075139;28;20411;-63
2021/11/30 05:32:49;;;;;;;12.65;7.28;;;;;;;5.09;83.93;101312.13;5058957;28;20049;-63
2021/11/30 05:35:17;;;;;;;14.27;7.15;;;;;;;5.24;83.84;101314.97;5077161;28;20060;-63
2021/11/30 05:37:45;;;;;;;11.50;7.43;;;;;;;5.35;82.83;101314.75;5077081;28;20041;-63
2021/11/30 05:40:12;;;;;;;14.45;7.30;;;;;;;5.45;83.09;101308.53;5063701;28;20075;-62
2021/11/30 05:42:39;;;;;;;12.43;7.30;;;;;;;5.38;82.86;101302.47;5056947;28;20056;-62
2021/11/30 05:45:07;;;;;;;11.38;7.03;;;;;;;5.48;83.00;101308.00;5056646;28;20151;-63
2021/11/30 05:47:34;;;;;;;12.48;6.82;;;;;;;5.73;82.93;101289.81;5056391;28;20060;-63
2021/11/30 05:50:03;;;;;;;11.25;6.15;;;;;;;5.63;82.09;101297.16;5055655;28;20049;-62
2021/11/30 05:52:30;;;;;;;10.88;6.35;;;;;;;5.69;82.07;101293.34;5056905;28;20056;-63
2021/11/30 05:54:58;;;;;;;11.50;6.18;;;;;;;5.79;82.23;101298.03;5056578;28;20538;-63
2021/11/30 05:57:25;;;;;;;11.25;6.53;;;;;;;5.80;82.01;101297.75;5056742;28;20388;-63
2021/11/30 05:59:56;;;;;;;11.15;6.30;;;;;;;5.71;82.50;101289.25;5056733;28;20055;-63
2021/11/30 06:02:24;;;;;;;15.00;6.40;;;;;;;5.71;82.51;101297.47;5055262;28;20512;-63
2021/11/30 06:04:51;;;;;;;12.38;6.15;;;;;;;5.89;82.40;101306.28;5056566;28;20056;-63
2021/11/30 06:07:18;;;;;;;12.07;6.93;;;;;;;5.99;81.57;101301.69;5071971;28;20053;-64
2021/11/30 06:09:45;;;;;;;12.85;7.20;;;;;;;5.96;81.78;101302.22;5056599;28;20055;-64
2021/11/30 06:12:12;;;;;;;10.15;6.65;;;;;;;5.93;82.19;101310.94;5056460;28;20055;-64
2021/11/30 06:14:40;;;;;;;12.02;5.55;;;;;;;6.04;81.97;101312.63;5056554;28;20102;-62
2021/11/30 06:17:09;;;;;;;13.45;6.38;;;;;;;6.17;81.60;101316.78;5056187;28;20060;-64
2021/11/30 06:19:37;;;;;;;9.50;5.70;;;;;;;6.18;80.46;101321.16;5056472;28;20511;-62
2021/11/30 06:22:06;;;;;;;11.88;6.55;;;;;;;5.93;81.96;101321.09;5071732;28;20298;-64
2021/11/30 06:24:33;;;;;;;9.27;5.82;;;;;;;6.02;81.98;101312.06;5038676;28;20049;-63
2021/11/30 06:27:00;;;;;;;12.82;6.28;;;;;;;6.04;81.78;101314.53;5056035;28;20526;-64
2021/11/30 06:29:28;;;;;;;10.70;6.35;;;;;;;6.11;81.67;101313.19;5066014;28;20061;-64
2021/11/30 06:31:55;;;;;;;11.43;6.43;;;;;;;6.01;82.25;101312.34;5054048;28;20068;-63
2021/11/30 06:34:22;;;;;;;9.05;5.63;;;;;;;6.09;81.69;101320.03;5067209;28;20653;-63
2021/11/30 06:36:50;;;;;;;10.57;5.88;;;;;;;6.09;82.14;101320.84;5073471;28;20049;-63
2021/11/30 06:39:17;;;;;;;11.45;6.18;;;;;;;6.27;81.61;101306.69;5083025;28;20055;-65
2021/11/30 06:41:45;;;;;;;13.65;6.20;;;;;;;6.18;81.40;101327.44;5096268;28;20052;-63
2021/11/30 06:44:12;;;;;;;13.82;6.35;;;;;;;6.14;81.52;101317.28;5075288;28;20053;-62
2021/11/30 06:46:39;;;;;;;10.45;5.97;;;;;;;6.15;82.40;101313.50;5046283;28;20052;-62
2021/11/30 06:49:08;;;;;;;10.13;6.50;;;;;;;6.13;81.88;101312.94;5062006;28;20056;-62
2021/11/30 06:51:35;;;;;;;10.15;6.15;;;;;;;6.42;82.13;101312.16;5069603;28;20428;-63
2021/11/30 06:54:02;;;;;;;9.48;6.25;;;;;;;6.55;81.20;101305.34;5069532;28;20056;-62
2021/11/30 06:56:29;;;;;;;12.50;5.90;;;;;;;6.55;80.28;101299.88;5074508;28;20060;-64
2021/11/30 06:58:56;;;;;;;11.07;6.25;;;;;;;6.65;79.88;101306.19;5074936;28;20052;-63
2021/11/30 07:01:26;;;;;;;10.85;5.85;;;;;;;6.65;80.50;101303.44;5075278;28;20061;-66
2021/11/30 07:03:53;;;;;;;9.93;5.63;;;;;;;6.60;80.57;101286.19;5074782;28;20531;-62
2021/11/30 07:06:26;;;;;;;13.68;6.88;;;;;;;6.46;81.25;101301.50;5072570;28;20044;-64
2021/11/30 07:09:14;;;;;;;12.32;6.40;;;;;;;6.48;81.07;101291.94;5066897;28;20048;-63
2021/11/30 07:14:15;;;;;;;11.30;6.35;;;;;;;6.63;80.35;101289.22;5057586;28;20053;-63
2021/11/30 07:16:42;;;;;;;13.63;6.88;;;;;;;6.63;80.49;101302.06;5054752;28;20052;-63
2021/11/30 07:19:14;;;;;;;14.40;7.13;;;;;;;6.50;80.73;101305.34;5055656;28;20068;-63
2021/11/30 07:21:42;;;;;;;13.20;7.07;;;;;;;6.49;81.14;101310.00;5056145;28;20063;-63
2021/11/30 07:24:09;;;;;;;13.15;7.20;;;;;;;6.39;81.61;101306.41;5062677;28;20049;-61
2021/11/30 07:26:37;;;;;;;12.43;6.93;;;;;;;6.54;81.71;101309.16;5061334;28;20049;-63
2021/11/30 07:29:23;;;;;;;14.10;7.18;;;;;;;6.69;80.98;101303.72;5055913;28;20041;-62
2021/11/30 07:31:50;;;;;;;19.88;6.57;;;;;;;6.58;81.20;101302.88;5054628;28;20041;-63
2021/11/30 07:34:18;;;;;;;12.52;6.82;;;;;;;6.72;80.96;101297.69;5058754;28;20048;-63
2021/11/30 07:36:45;;;;;;;16.77;6.20;;;;;;;9.07;81.28;101293.03;5065051;28;20061;-63
2021/11/30 07:39:12;;;;;;;10.80;5.82;;;;;;;9.44;71.46;101303.38;5069127;28;20048;-62
2021/11/30 07:41:39;;;;;;;13.02;6.32;;;;;;;8.64;71.81;101307.69;5060779;28;20053;-64
2021/11/30 07:44:07;;;;;;;13.55;6.90;;;;;;;8.22;73.47;101309.31;5054568;28;20044;-63
2021/11/30 07:46:35;;;;;;;16.83;10.65;;;;;;;8.31;74.27;101310.38;5062895;28;20041;-62
2021/11/30 07:49:03;;;;;;;14.25;7.47;;;;;;;8.27;73.80;101306.56;5049737;28;20476;-62
2021/11/30 07:51:32;;;;;;;14.75;9.13;;;;;;;8.13;74.35;101309.09;5076025;28;20048;-62
2021/11/30 07:53:59;;;;;;;13.93;7.88;;;;;;;8.32;74.42;101309.28;5053481;28;20491;-64
2021/11/30 07:56:27;;;;;;;12.60;7.40;;;;;;;7.90;74.93;101307.00;5054642;28;20053;-64
2021/11/30 07:58:54;;;;;;;11.63;7.70;;;;;;;7.89;75.65;101299.88;5057078;28;20041;-64
2021/11/30 08:01:22;;;;;;;14.50;8.05;;;;;;;8.10;75.01;101306.09;5058088;28;20523;-62
2021/11/30 08:03:50;;;;;;;15.02;9.10;;;;;;;7.72;74.84;101310.38;5050456;28;20053;-63
2021/11/30 08:06:17;;;;;;;13.60;8.77;;;;;;;7.44;76.12;101324.72;5064667;28;20428;-62
2021/11/30 08:08:47;;;;;;;17.83;8.23;;;;;;;7.49;76.55;101327.44;5061441;28;20045;-63
2021/11/30 08:11:15;;;;;;;12.30;8.18;;;;;;;7.70;77.18;101318.91;5063974;28;20051;-63
2021/11/30 08:13:42;;;;;;;14.82;8.85;;;;;;;7.87;74.67;101324.03;5057390;28;20045;-64
2021/11/30 08:16:09;;;;;;;15.10;9.70;;;;;;;7.83;74.70;101326.50;5057838;28;20100;-63
2021/11/30 08:18:36;;;;;;;16.10;10.60;;;;;;;8.15;74.62;101325.25;5072779;28;20041;-63
2021/11/30 08:21:04;;;;;;;16.92;9.43;;;;;;;7.89;74.44;101333.63;5066332;28;20044;-63
2021/11/30 08:23:31;;;;;;;17.35;10.32;;;;;;;7.72;75.37;101337.81;5064286;28;20059;-63
2021/11/30 08:25:58;;;;;;;20.98;13.30;;;;;;;7.95;75.77;101327.00;5066657;28;20049;-63
2021/11/30 08:28:25;;;;;;;15.43;9.82;;;;;;;7.97;74.54;101329.47;5073649;28;20049;-63
2021/11/30 08:30:53;;;;;;;17.25;10.32;;;;;;;7.96;74.48;101331.41;5062897;28;20049;-64
2021/11/30 08:33:21;;;;;;;18.30;9.35;;;;;;;7.56;75.15;101331.56;5057850;28;20057;-74
2021/11/30 08:35:48;;;;;;;18.73;9.93;;;;;;;7.80;75.06;101331.72;5059499;28;20049;-64
2021/11/30 08:38:16;;;;;;;20.77;10.68;;;;;;;7.70;75.48;101340.84;5078047;28;20037;-65
2021/11/30 08:40:43;;;;;;;15.45;10.52;;;;;;;7.50;75.88;101340.03;5074728;28;20059;-64
2021/11/30 08:43:10;;;;;;;18.08;10.73;;;;;;;7.89;76.12;101344.59;5058360;28;20068;-64
2021/11/30 08:45:38;;;;;;;16.88;9.98;;;;;;;8.04;75.07;101329.19;5057013;28;20053;-64
2021/11/30 08:48:05;;;;;;;15.95;10.77;;;;;;;8.02;74.76;101330.25;5059722;28;20045;-64
2021/11/30 08:50:33;;;;;;;18.20;10.55;;;;;;;7.52;76.65;101346.91;5063655;28;20055;-65
2021/11/30 08:53:00;;;;;;;19.73;11.48;;;;;;;7.53;76.82;101337.56;5065199;28;20048;-65
2021/11/30 08:55:28;;;;;;;17.95;10.93;;;;;;;7.39;77.55;101339.25;5057604;28;20066;-64
2021/11/30 08:58:00;;;;;;;18.55;11.02;;;;;;;7.67;76.98;101332.34;5057726;28;20574;-65
2021/11/30 09:00:28;;;;;;;17.00;10.45;;;;;;;7.81;76.37;101334.19;5056185;28;20060;-65
2021/11/30 09:02:56;;;;;;;18.98;11.05;;;;;;;7.64;76.35;101343.84;5063164;28;20067;-63
2021/11/30 09:05:23;;;;;;;19.85;10.30;;;;;;;7.61;77.07;101333.44;5076316;28;20049;-63
2021/11/30 09:07:51;;;;;;;19.58;11.38;;;;;;;7.78;77.31;101320.22;5063084;28;20064;-63
2021/11/30 09:10:19;;;;;;;17.38;11.32;;;;;;;7.84;76.75;101330.09;5071116;28;20061;-63
2021/11/30 09:12:47;;;;;;;19.63;10.90;;;;;;;7.90;76.87;101317.97;5070998;28;20045;-63
2021/11/30 09:15:14;;;;;;;17.98;11.57;;;;;;;7.56;77.52;101334.28;5061990;28;20057;-63
2021/11/30 09:17:50;;;;;;;24.05;12.45;;;;;;;7.78;77.99;101333.94;5060095;28;20056;-63
2021/11/30 09:20:18;;;;;;;19.63;12.05;;;;;;;7.95;77.07;101339.88;5063700;28;20037;-63
2021/11/30 09:22:45;;;;;;;22.00;12.07;;;;;;;8.10;75.98;101344.50;5046201;28;20052;-63
2021/11/30 09:25:12;;;;;;;20.08;11.93;;;;;;;8.12;76.61;101345.88;5066887;28;20057;-65
2021/11/30 09:27:40;;;;;;;21.55;12.07;;;;;;;8.25;75.93;101344.44;5055792;28;20219;-63
2021/11/30 09:30:09;;;;;;;20.00;11.82;;;;;;;8.16;76.55;101338.69;5056382;28;20068;-64
2021/11/30 09:32:36;;;;;;;20.88;12.02;;;;;;;8.25;76.36;101334.28;5055414;28;20049;-64
2021/11/30 09:35:08;;;;;;;19.20;11.80;;;;;;;8.24;76.58;101329.91;5056113;28;20057;-64
2021/11/30 09:37:39;;;;;;;19.83;13.00;;;;;;;8.21;76.60;101337.88;5064228;28;20384;-64
2021/11/30 09:40:08;;;;;;;15.85;10.98;;;;;;;8.10;77.23;101331.59;5068280;28;20052;-64
2021/11/30 09:42:36;;;;;;;16.80;10.93;;;;;;;8.12;77.46;101325.84;5032318;28;20053;-64
2021/11/30 09:45:05;;;;;;;16.88;10.55;;;;;;;7.97;77.97;101335.78;5068111;28;20167;-65
2021/11/30 09:47:33;;;;;;;19.80;11.10;;;;;;;7.97;78.53;101332.19;5069202;28;20053;-65
2021/11/30 09:50:04;;;;;;;19.20;11.25;;;;;;;8.38;77.91;101330.09;5071287;28;20668;-65
2021/11/30 09:52:31;;;;;;;;;;;;;;;8.44;77.29;101324.28;5062426;28;20049;-65
2021/11/30 09:54:58;;;;;;;19.02;10.98;;;;;;;8.32;77.47;101329.31;5069992;28;19928;-66
2021/11/30 09:57:30;;;;;;;16.35;10.20;;;;;;;8.49;77.36;101326.19;5058167;28;20053;-66
2021/11/30 09:59:58;;;;;;;18.08;11.18;;;;;;;8.17;77.98;101334.03;5061994;28;20053;-66
2021/11/30 10:02:46;;;;;;;18.25;10.48;;;;;;;8.49;77.69;101324.25;5068998;28;20044;-65
2021/11/30 10:05:13;;;;;;;16.50;10.93;;;;;;;8.42;77.83;101329.25;5074764;28;20059;-65
2021/11/30 10:07:44;;;;;;;20.35;10.25;;;;;;;8.51;77.70;101324.78;5073952;28;20051;-65
2021/11/30 10:10:12;;;;;;;;;;;;;;;8.59;77.74;101318.72;5058416;28;20045;-65
2021/11/30 10:12:39;;;;;;;17.23;9.55;;;;;;;8.70;76.95;101314.78;5056614;28;19921;-65
2021/11/30 10:15:09;;;;;;;17.40;9.85;;;;;;;8.70;77.13;101323.00;5055346;28;20068;-65
2021/11/30 10:17:37;;;;;;;17.25;9.93;;;;;;;8.67;76.66;101318.09;5059712;28;20069;-67
2021/11/30 10:20:11;;;;;;;19.23;10.32;;;;;;;8.70;76.58;101322.22;5062452;28;20071;-65
2021/11/30 10:22:45;;;;;;;18.65;11.30;;;;;;;8.67;76.42;101315.34;5054847;28;20603;-65
2021/11/30 10:25:15;;;;;;;16.92;11.57;;;;;;;8.53;76.93;101311.59;5065065;28;20534;-64
2021/11/30 10:27:46;;;;;;;15.48;10.07;;;;;;;8.66;77.34;101313.72;5058805;28;20048;-66
2021/11/30 10:30:29;;;;;;;16.13;10.25;;;;;;;8.93;76.63;101311.28;5074836;28;20047;-65
2021/11/30 10:32:58;;;;;;;15.75;9.73;;;;;;;8.95;76.52;101314.56;5061911;28;20057;-65
2021/11/30 10:35:27;;;;;;;13.38;9.10;;;;;;;9.10;76.00;101325.41;5044379;28;20053;-65
2021/11/30 10:37:57;;;;;;;15.07;9.48;;;;;;;9.07;75.80;101315.00;5061521;28;20541;-65
2021/11/30 10:40:26;;;;;;;11.07;7.90;;;;;;;9.01;75.78;101335.38;5052335;28;20049;-64
2021/11/30 10:42:59;;;;;;;14.48;8.43;;;;;;;8.83;76.70;101316.03;5059849;28;20044;-65
2021/11/30 10:45:31;;;;;;;13.30;8.73;;;;;;;9.14;76.11;101322.91;5059870;28;20041;-66
2021/11/30 10:48:05;;;;;;;13.07;8.32;;;;;;;8.99;75.58;101326.63;5059847;28;20045;-66
2021/11/30 10:50:56;;;;;;;13.48;8.15;;;;;;;9.12;75.49;101305.88;5064789;28;20055;-65
2021/11/30 10:53:30;;;;;;;16.23;7.75;;;;;;;9.13;75.23;101302.84;5065206;28;20053;-65
2021/11/30 10:56:03;;;;;;;13.73;8.45;;;;;;;9.02;75.44;101306.00;5067603;28;20511;-65
2021/11/30 10:58:32;;;;;;;13.07;7.95;;;;;;;8.97;76.23;101304.13;5058791;28;20060;-66
2021/11/30 11:01:06;;;;;;;12.80;6.88;;;;;;;9.13;76.02;101297.34;5059986;28;20449;-66
2021/11/30 11:03:34;;;;;;;16.45;7.35;;;;;;;9.10;75.92;101292.44;5067014;28;20053;-65
2021/11/30 11:08:56;;;;;;;16.83;7.30;;;;;;;9.23;76.26;101284.63;5058332;28;20048;-65
2021/11/30 11:11:35;;;;;;;15.98;6.32;;;;;;;9.10;76.10;101283.38;5058275;28;20048;-65
2021/11/30 11:14:18;;;;;;;13.30;6.40;;;;;;;9.12;77.24;101283.09;5063750;28;20045;-66
2021/11/30 11:16:50;;;;;;;10.90;6.72;;;;;;;9.02;77.51;101287.59;5057209;28;20056;-65
2021/11/30 11:19:19;;;;;;;10.07;6.35;;;;;;;9.18;77.22;101277.25;5066241;28;20048;-65
2021/11/30 11:21:46;;;;;;;10.57;6.40;;;;;;;9.12;77.21;101275.66;5060634;28;20056;-66
2021/11/30 11:24:22;;;;;;;13.57;6.97;;;;;;;9.30;77.26;101271.34;5061253;28;20052;-66
2021/11/30 11:26:55;;;;;;;14.73;6.90;;;;;;;9.46;76.10;101270.09;5070824;28;20052;-65
2021/11/30 11:29:29;;;;;;;11.43;6.28;;;;;;;9.56;75.86;101258.94;5068582;28;20045;-65
2021/11/30 11:31:59;;;;;;;12.88;7.15;;;;;;;9.79;75.11;101261.69;5062279;28;20048;-69
2021/11/30 11:34:29;;;;;;;13.07;7.45;;;;;;;9.39;75.41;101264.09;5062846;28;20060;-65
2021/11/30 11:36:58;;;;;;;9.73;6.78;;;;;;;9.31;76.67;101257.31;5059594;28;20057;-66
2021/11/30 11:39:26;;;;;;;11.43;6.47;;;;;;;9.34;76.49;101261.41;5071504;28;20489;-66
2021/11/30 11:42:06;;;;;;;10.43;6.72;;;;;;;9.34;76.81;101253.19;5071836;28;20049;-65
2021/11/30 11:44:34;;;;;;;12.32;6.88;;;;;;;9.51;76.84;101253.53;5065272;28;20060;-66
2021/11/30 11:47:04;;;;;;;33.22;24.95;;;;;;;9.36;76.29;101249.03;5062486;28;20067;-65
2021/11/30 11:49:37;;;;;;;18.33;12.23;;;;;;;9.36;77.10;101250.97;5058737;28;20061;-66
2021/11/30 11:52:05;;;;;;;12.68;7.13;;;;;;;9.27;76.87;101245.28;5057797;28;20040;-66